createdAt,value
2019-05-03T00:02:21.682Z,99.90
2019-05-03T00:04:52.495Z,99.90
2019-05-03T00:07:22.304Z,99.90
2019-05-03T00:09:52.030Z,99.90
2019-05-03T00:12:22.090Z,99.90
2019-05-03T00:14:53.694Z,99.90
2019-05-03T00:17:22.652Z,99.90
2019-05-03T00:19:52.758Z,99.90
2019-05-03T00:22:21.744Z,99.90
2019-05-03T00:25:03.135Z,99.90
2019-05-03T00:27:21.740Z,99.90
2019-05-03T00:29:52.344Z,99.90
2019-05-03T00:32:22.985Z,99.90
2019-05-03T00:34:53.158Z,99.90
2019-05-03T00:37:26.000Z,99.90
2019-05-03T00:40:02.270Z,99.90
2019-05-03T00:42:31.763Z,99.90
2019-05-03T00:45:02.344Z,99.90
2019-05-03T00:47:32.847Z,99.90
2019-05-03T00:50:02.874Z,99.90
2019-05-03T00:52:31.879Z,99.90
2019-05-03T00:55:02.259Z,99.90
2019-05-03T00:57:32.330Z,99.90
2019-05-03T01:00:02.035Z,99.90
2019-05-03T01:02:31.853Z,99.90
2019-05-03T01:05:02.742Z,99.90
2019-05-03T01:07:31.866Z,99.90
2019-05-03T01:10:02.653Z,99.90
2019-05-03T01:12:34.138Z,99.90
2019-05-03T01:15:04.238Z,99.90
2019-05-03T01:17:35.155Z,99.90
2019-05-03T01:20:05.675Z,99.90
2019-05-03T01:22:34.086Z,99.90
2019-05-03T01:25:03.073Z,99.90
2019-05-03T01:27:32.610Z,99.90
2019-05-03T01:30:02.977Z,99.90
2019-05-03T01:32:32.882Z,99.90
2019-05-03T01:35:03.144Z,99.90
2019-05-03T01:37:32.109Z,99.90
2019-05-03T01:40:02.293Z,99.90
2019-05-03T01:42:32.060Z,99.90
2019-05-03T01:45:20.865Z,99.90
2019-05-03T01:47:54.989Z,99.90
2019-05-03T01:50:32.973Z,99.90
2019-05-03T01:53:05.745Z,99.90
2019-05-03T01:55:52.690Z,99.90
2019-05-03T01:58:22.578Z,99.90
2019-05-03T02:00:57.300Z,99.90
2019-05-03T02:03:30.082Z,99.90
2019-05-03T02:05:58.997Z,99.90
2019-05-03T02:08:27.468Z,99.90
2019-05-03T02:10:55.981Z,99.90
2019-05-03T02:13:24.647Z,99.90
2019-05-03T02:15:53.126Z,99.90
2019-05-03T02:18:22.371Z,99.90
2019-05-03T02:20:52.558Z,99.90
2019-05-03T02:23:22.471Z,99.90
2019-05-03T02:25:58.297Z,99.90
2019-05-03T02:28:22.049Z,99.90
2019-05-03T02:30:53.268Z,99.90
2019-05-03T02:33:23.323Z,99.90
2019-05-03T02:35:53.274Z,99.90
2019-05-03T02:38:23.344Z,99.90
2019-05-03T02:40:53.208Z,99.90
2019-05-03T02:43:26.076Z,99.90
2019-05-03T02:48:38.391Z,99.90
2019-05-03T02:51:06.936Z,99.90
2019-05-03T02:53:36.099Z,99.90
2019-05-03T02:56:22.675Z,99.90
2019-05-03T02:58:47.919Z,99.90
2019-05-03T03:01:17.113Z,99.90
2019-05-03T03:03:47.461Z,99.90
2019-05-03T03:06:18.806Z,99.90
2019-05-03T03:08:52.104Z,99.90
2019-05-03T03:11:22.053Z,99.90
2019-05-03T03:13:55.381Z,99.90
2019-05-03T03:16:26.447Z,99.90
2019-05-03T03:18:58.616Z,99.90
2019-05-03T03:21:32.044Z,99.90
2019-05-03T03:24:06.216Z,99.90
2019-05-03T03:26:41.508Z,99.90
2019-05-03T03:29:09.564Z,99.90
2019-05-03T03:31:48.520Z,99.90
2019-05-03T03:34:20.410Z,99.90
2019-05-03T03:37:04.378Z,99.90
2019-05-03T03:39:26.680Z,99.90
2019-05-03T03:41:59.373Z,99.90
2019-05-03T03:44:28.460Z,99.90
2019-05-03T03:46:58.935Z,99.90
2019-05-03T03:49:29.850Z,99.90
2019-05-03T03:52:00.966Z,99.90
2019-05-03T03:54:35.277Z,99.90
2019-05-03T03:57:07.919Z,99.90
2019-05-03T03:59:36.402Z,99.90
2019-05-03T04:02:05.998Z,99.90
2019-05-03T04:04:36.060Z,99.90
2019-05-03T04:07:06.541Z,99.90
2019-05-03T04:09:36.355Z,99.90
2019-05-03T04:12:06.148Z,99.90
2019-05-03T04:14:45.328Z,99.90
2019-05-03T04:17:15.813Z,99.90
2019-05-03T04:19:46.208Z,99.90
2019-05-03T04:22:17.472Z,99.90
2019-05-03T04:24:46.155Z,99.90
2019-05-03T04:27:22.726Z,99.90
2019-05-03T04:29:46.125Z,99.90
2019-05-03T04:32:15.640Z,99.90
2019-05-03T04:34:45.571Z,99.90
2019-05-03T04:37:16.275Z,99.90
2019-05-03T04:39:45.602Z,99.90
2019-05-03T04:42:16.505Z,99.90
2019-05-03T04:44:45.712Z,99.90
2019-05-03T04:47:15.939Z,99.90
2019-05-03T04:49:46.282Z,99.90
2019-05-03T04:52:16.486Z,99.90
2019-05-03T04:54:46.957Z,99.90
2019-05-03T04:57:16.035Z,99.90
2019-05-03T04:59:46.094Z,99.90
2019-05-03T05:02:15.965Z,99.90
2019-05-03T05:04:46.408Z,99.90
2019-05-03T05:07:15.695Z,99.90
2019-05-03T05:09:45.599Z,99.90
2019-05-03T05:12:16.133Z,99.90
2019-05-03T05:14:45.697Z,99.90
2019-05-03T05:17:16.724Z,99.90
2019-05-03T05:19:58.559Z,99.90
2019-05-03T05:22:31.619Z,99.90
2019-05-03T05:25:01.800Z,99.90
2019-05-03T05:27:51.758Z,99.90
2019-05-03T05:30:18.542Z,99.90
2019-05-03T05:32:47.018Z,99.90
2019-05-03T05:35:16.342Z,99.90
2019-05-03T05:37:44.847Z,99.90
2019-05-03T05:40:15.536Z,99.90
2019-05-03T05:42:45.417Z,99.90
2019-05-03T05:45:15.319Z,99.90
2019-05-03T05:48:00.720Z,99.90
2019-05-03T05:50:31.457Z,99.90
2019-05-03T05:52:59.867Z,99.90
2019-05-03T05:55:46.411Z,99.90
2019-05-03T05:58:16.526Z,99.90
2019-05-03T06:00:46.597Z,99.90
2019-05-03T06:03:15.302Z,99.90
2019-05-03T06:05:44.705Z,99.90
2019-05-03T06:08:15.159Z,99.90
2019-05-03T06:10:58.077Z,99.90
2019-05-03T06:13:45.895Z,99.90
2019-05-03T06:16:16.233Z,99.50
2019-05-03T06:18:54.284Z,98.20
2019-05-03T06:21:44.778Z,97.90
2019-05-03T06:24:15.430Z,97.30
2019-05-03T06:26:58.118Z,97.10
2019-05-03T06:29:26.575Z,96.50
2019-05-03T06:32:05.569Z,96.10
2019-05-03T06:34:35.438Z,94.20
2019-05-03T06:37:07.174Z,95.90
2019-05-03T06:39:35.628Z,94.20
2019-05-03T06:42:05.191Z,93.60
2019-05-03T06:44:34.918Z,92.70
2019-05-03T06:47:06.669Z,91.10
2019-05-03T06:49:34.551Z,91.00
2019-05-03T06:52:05.896Z,91.80
2019-05-03T06:54:37.682Z,90.90
2019-05-03T06:57:09.487Z,89.50
2019-05-03T06:59:38.996Z,88.70
2019-05-03T07:02:28.401Z,86.40
2019-05-03T07:05:05.653Z,83.80
2019-05-03T07:07:46.564Z,81.40
2019-05-03T07:10:16.718Z,82.10
2019-05-03T07:13:08.768Z,82.90
2019-05-03T07:15:36.036Z,82.10
2019-05-03T07:18:05.782Z,76.70
2019-05-03T07:20:46.699Z,77.70
2019-05-03T07:23:16.635Z,77.10
2019-05-03T07:25:45.518Z,79.20
2019-05-03T07:28:15.139Z,78.80
2019-05-03T07:30:45.366Z,75.60
2019-05-03T07:33:17.065Z,76.60
2019-05-03T07:35:45.513Z,77.70
2019-05-03T07:38:15.537Z,76.00
2019-05-03T07:40:44.643Z,76.10
2019-05-03T07:43:14.861Z,76.30
2019-05-03T07:45:44.662Z,79.60
2019-05-03T07:48:15.077Z,79.10
2019-05-03T07:50:44.764Z,79.00
2019-05-03T07:53:15.015Z,75.80
2019-05-03T07:56:05.068Z,75.30
2019-05-03T07:58:36.323Z,77.70
2019-05-03T08:01:10.217Z,79.80
2019-05-03T08:03:39.029Z,73.20
2019-05-03T08:06:07.503Z,74.40
2019-05-03T08:08:36.118Z,75.10
2019-05-03T08:11:06.643Z,71.50
2019-05-03T08:13:35.620Z,70.50
2019-05-03T08:16:08.322Z,69.50
2019-05-03T08:18:36.747Z,69.70
2019-05-03T08:21:06.199Z,69.00
2019-05-03T08:23:36.228Z,63.40
2019-05-03T08:26:06.339Z,61.10
2019-05-03T08:28:41.052Z,59.80
2019-05-03T08:31:25.443Z,59.00
2019-05-03T08:33:55.386Z,61.80
2019-05-03T08:36:24.755Z,64.30
2019-05-03T08:38:53.326Z,67.70
2019-05-03T08:41:25.974Z,67.00
2019-05-03T08:43:55.020Z,67.80
2019-05-03T08:46:25.376Z,66.50
2019-05-03T08:48:54.916Z,71.40
2019-05-03T08:51:25.550Z,71.50
2019-05-03T08:53:55.962Z,72.40
2019-05-03T08:56:25.469Z,69.40
2019-05-03T08:58:55.464Z,66.60
2019-05-03T09:01:25.194Z,68.10
2019-05-03T09:03:55.771Z,65.80
2019-05-03T09:06:24.793Z,69.40
2019-05-03T09:08:56.894Z,66.20
2019-05-03T09:11:33.975Z,59.60
2019-05-03T09:13:57.681Z,62.20
2019-05-03T09:16:27.895Z,61.60
2019-05-03T09:18:56.799Z,64.50
2019-05-03T09:21:25.662Z,67.80
2019-05-03T09:23:55.402Z,64.70
2019-05-03T09:26:28.845Z,63.70
2019-05-03T09:28:55.650Z,67.90
2019-05-03T09:31:25.730Z,70.70
2019-05-03T09:33:54.856Z,74.60
2019-05-03T09:36:25.282Z,74.60
2019-05-03T09:38:54.861Z,74.80
2019-05-03T09:41:25.542Z,75.90
2019-05-03T09:43:55.421Z,74.70
2019-05-03T09:46:26.555Z,73.00
2019-05-03T09:49:03.602Z,72.50
2019-05-03T09:51:25.523Z,69.10
2019-05-03T09:54:00.578Z,66.80
2019-05-03T09:56:55.263Z,57.90
2019-05-03T09:59:18.115Z,55.50
2019-05-03T10:01:46.608Z,50.50
2019-05-03T10:04:17.929Z,50.70
2019-05-03T10:06:45.497Z,53.60
2019-05-03T10:09:15.424Z,58.80
2019-05-03T10:11:49.453Z,66.20
2019-05-03T10:14:19.056Z,68.50
2019-05-03T10:16:49.168Z,71.50
2019-05-03T10:19:18.164Z,70.80
2019-05-03T10:21:48.195Z,66.20
2019-05-03T10:24:16.697Z,66.40
2019-05-03T10:26:45.765Z,60.50
2019-05-03T10:29:15.231Z,57.80
2019-05-03T10:32:02.643Z,58.80
2019-05-03T10:34:31.343Z,54.30
2019-05-03T10:37:00.047Z,51.70
2019-05-03T10:39:30.425Z,52.20
2019-05-03T10:41:58.860Z,44.60
2019-05-03T10:44:27.416Z,44.70
2019-05-03T10:46:56.216Z,42.90
2019-05-03T10:49:24.677Z,41.40
2019-05-03T10:51:57.364Z,41.90
2019-05-03T10:54:25.818Z,42.10
2019-05-03T10:56:57.280Z,43.00
2019-05-03T10:59:39.435Z,44.50
2019-05-03T11:02:12.955Z,43.80
2019-05-03T11:04:43.696Z,48.60
2019-05-03T11:07:11.986Z,52.30
2019-05-03T11:09:48.818Z,51.10
2019-05-03T11:12:10.525Z,51.70
2019-05-03T11:14:39.171Z,54.50
2019-05-03T11:17:08.379Z,53.30
2019-05-03T11:19:36.900Z,56.30
2019-05-03T11:22:06.041Z,55.40
2019-05-03T11:24:34.998Z,52.50
2019-05-03T11:27:05.439Z,54.10
2019-05-03T11:29:35.616Z,56.10
2019-05-03T11:32:09.465Z,58.60
2019-05-03T11:34:45.204Z,63.10
2019-05-03T11:37:18.367Z,63.70
2019-05-03T11:39:47.742Z,61.50
2019-05-03T11:42:18.591Z,54.60
2019-05-03T11:44:46.549Z,49.30
2019-05-03T11:47:16.223Z,48.30
2019-05-03T11:49:45.577Z,52.20
2019-05-03T11:52:15.894Z,51.80
2019-05-03T11:54:50.499Z,54.10
2019-05-03T11:57:25.976Z,55.20
2019-05-03T11:59:54.770Z,56.30
2019-05-03T12:02:25.626Z,56.80
2019-05-03T12:04:55.243Z,56.50
2019-05-03T12:07:39.556Z,60.10
2019-05-03T12:10:13.627Z,61.20
2019-05-03T12:12:44.000Z,64.40
2019-05-03T12:15:12.764Z,64.10
2019-05-03T12:17:57.867Z,58.80
2019-05-03T12:20:23.936Z,58.00
2019-05-03T12:22:53.749Z,60.40
2019-05-03T12:25:25.518Z,60.70
2019-05-03T12:27:52.837Z,60.60
2019-05-03T12:30:24.839Z,59.90
2019-05-03T12:32:51.960Z,56.00
2019-05-03T12:35:20.380Z,47.70
2019-05-03T12:37:49.093Z,43.60
2019-05-03T12:40:17.584Z,42.70
2019-05-03T12:42:46.039Z,44.70
2019-05-03T12:45:15.327Z,47.10
2019-05-03T12:47:45.389Z,47.30
2019-05-03T12:50:15.695Z,48.90
2019-05-03T12:52:50.354Z,48.80
2019-05-03T12:55:15.539Z,52.00
2019-05-03T12:57:45.714Z,52.90
2019-05-03T13:00:33.992Z,50.90
2019-05-03T13:03:04.611Z,52.80
2019-05-03T13:05:33.179Z,51.50
2019-05-03T13:08:21.892Z,51.80
2019-05-03T13:10:50.336Z,51.30
2019-05-03T13:13:18.761Z,49.10
2019-05-03T13:15:47.356Z,50.10
2019-05-03T13:18:15.798Z,50.30
2019-05-03T13:20:45.371Z,49.30
2019-05-03T13:23:14.905Z,49.10
2019-05-03T13:25:44.761Z,50.00
2019-05-03T13:28:15.184Z,48.80
2019-05-03T13:30:45.276Z,50.60
2019-05-03T13:33:15.183Z,52.00
2019-05-03T13:35:44.614Z,49.50
2019-05-03T13:38:13.678Z,49.10
2019-05-03T13:40:51.639Z,48.90
2019-05-03T13:43:20.559Z,50.60
2019-05-03T13:45:49.057Z,50.20
2019-05-03T13:48:20.933Z,49.20
2019-05-03T13:50:47.790Z,52.20
2019-05-03T13:53:16.614Z,54.10
2019-05-03T13:55:46.482Z,52.30
2019-05-03T13:58:14.908Z,51.70
2019-05-03T14:00:45.179Z,53.30
2019-05-03T14:03:15.205Z,53.90
2019-05-03T14:05:44.586Z,53.00
2019-05-03T14:08:15.440Z,55.20
2019-05-03T14:10:45.595Z,53.60
2019-05-03T14:13:13.975Z,54.60
2019-05-03T14:15:42.520Z,54.30
2019-05-03T14:18:11.120Z,54.00
2019-05-03T14:20:41.316Z,56.60
2019-05-03T14:23:09.735Z,57.80
2019-05-03T14:25:38.600Z,56.30
2019-05-03T14:28:07.017Z,59.00
2019-05-03T14:30:35.518Z,58.50
2019-05-03T14:33:05.072Z,58.00
2019-05-03T14:35:37.606Z,59.10
2019-05-03T14:38:07.864Z,62.60
2019-05-03T14:40:36.386Z,61.10
2019-05-03T14:43:06.257Z,63.40
2019-05-03T14:45:35.135Z,63.20
2019-05-03T14:48:05.926Z,63.40
2019-05-03T14:50:35.054Z,62.30
2019-05-03T14:53:14.758Z,59.70
2019-05-03T14:55:48.156Z,61.00
2019-05-03T14:58:20.950Z,64.50
2019-05-03T15:01:07.712Z,65.20
2019-05-03T15:03:36.361Z,68.40
2019-05-03T15:06:05.293Z,65.40
2019-05-03T15:08:34.995Z,66.90
2019-05-03T15:11:05.667Z,67.80
2019-05-03T15:13:56.845Z,68.70
2019-05-03T15:16:26.389Z,69.70
2019-05-03T15:18:54.984Z,66.20
2019-05-03T15:21:25.204Z,67.10
2019-05-03T15:23:54.818Z,68.00
2019-05-03T15:26:24.849Z,66.30
2019-05-03T15:28:55.840Z,68.10
2019-05-03T15:31:25.553Z,68.40
2019-05-03T15:33:55.469Z,67.30
2019-05-03T15:36:27.623Z,71.80
2019-05-03T15:38:55.991Z,69.70
2019-05-03T15:41:25.161Z,71.00
2019-05-03T15:43:57.919Z,71.00
2019-05-03T15:46:40.186Z,69.70
2019-05-03T15:49:09.095Z,70.90
2019-05-03T15:51:37.509Z,73.30
2019-05-03T15:54:06.203Z,72.70
2019-05-03T15:56:36.812Z,74.40
2019-05-03T15:59:06.813Z,72.80
2019-05-03T16:01:35.639Z,72.20
2019-05-03T16:04:04.903Z,73.10
2019-05-03T16:06:33.400Z,74.10
2019-05-03T16:09:04.477Z,74.60
2019-05-03T16:11:34.384Z,76.40
2019-05-03T16:14:04.534Z,75.00
2019-05-03T16:16:33.124Z,76.30
2019-05-03T16:19:01.878Z,76.30
2019-05-03T16:21:30.938Z,77.30
2019-05-03T16:23:59.500Z,79.00
2019-05-03T16:26:28.022Z,78.20
2019-05-03T16:28:58.143Z,77.90
2019-05-03T16:31:26.801Z,79.10
2019-05-03T16:33:55.498Z,78.10
2019-05-03T16:36:23.939Z,79.40
2019-05-03T16:38:52.768Z,79.80
2019-05-03T16:41:21.649Z,80.70
2019-05-03T16:43:51.304Z,81.70
2019-05-03T16:46:20.572Z,82.10
2019-05-03T16:48:49.558Z,81.10
2019-05-03T16:51:18.023Z,83.80
2019-05-03T16:53:46.462Z,83.10
2019-05-03T16:56:17.096Z,84.40
2019-05-03T16:58:45.796Z,84.50
2019-05-03T17:01:17.800Z,84.60
2019-05-03T17:03:46.363Z,83.80
2019-05-03T17:06:22.143Z,84.80
2019-05-03T17:09:10.717Z,83.70
2019-05-03T17:11:39.241Z,83.90
2019-05-03T17:14:07.674Z,81.50
2019-05-03T17:16:36.350Z,82.80
2019-05-03T17:19:05.867Z,85.10
2019-05-03T17:21:34.943Z,84.30
2019-05-03T17:24:04.384Z,83.80
2019-05-03T17:26:35.121Z,84.70
2019-05-03T17:29:04.628Z,85.50
2019-05-03T17:31:35.050Z,87.50
2019-05-03T17:34:05.384Z,86.80
2019-05-03T17:36:34.452Z,86.90
2019-05-03T17:39:05.057Z,86.40
2019-05-03T17:44:17.376Z,86.20
2019-05-03T17:46:46.731Z,85.20
2019-05-03T17:49:15.370Z,86.10
2019-05-03T17:51:48.700Z,87.00
2019-05-03T17:54:27.673Z,87.50
2019-05-03T17:57:01.112Z,86.80
2019-05-03T17:59:31.193Z,87.30
2019-05-03T18:02:16.667Z,87.40
2019-05-03T18:04:46.973Z,88.10
2019-05-03T18:07:24.324Z,88.10
2019-05-03T18:09:55.378Z,87.10
2019-05-03T18:12:24.570Z,88.20
2019-05-03T18:14:53.081Z,87.60
2019-05-03T18:17:21.661Z,88.90
2019-05-03T18:19:50.513Z,89.50
2019-05-03T18:22:19.008Z,88.70
2019-05-03T18:24:47.431Z,88.60
2019-05-03T18:27:16.122Z,88.50
2019-05-03T18:29:55.288Z,88.80
2019-05-03T18:32:25.160Z,88.30
2019-05-03T18:34:54.606Z,87.70
2019-05-03T18:37:24.491Z,87.80
2019-05-03T18:39:54.685Z,89.20
2019-05-03T18:42:25.138Z,90.10
2019-05-03T18:44:58.791Z,89.40
2019-05-03T18:47:28.587Z,88.50
2019-05-03T18:49:57.023Z,88.80
2019-05-03T18:52:35.466Z,89.40
2019-05-03T18:55:06.171Z,89.70
2019-05-03T18:57:36.319Z,90.10
2019-05-03T19:00:08.928Z,90.40
2019-05-03T19:02:37.444Z,90.50
2019-05-03T19:05:07.667Z,90.80
2019-05-03T19:07:37.982Z,91.00
2019-05-03T19:10:15.516Z,90.90
2019-05-03T19:12:48.482Z,91.00
2019-05-03T19:15:17.070Z,91.30
2019-05-03T19:17:47.201Z,91.60
2019-05-03T19:20:24.649Z,91.10
2019-05-03T19:22:54.396Z,91.10
2019-05-03T19:25:25.343Z,91.20
2019-05-03T19:27:54.541Z,91.20
2019-05-03T19:30:24.500Z,91.50
2019-05-03T19:32:58.818Z,91.40
2019-05-03T19:35:27.578Z,91.70
2019-05-03T19:37:56.588Z,91.90
2019-05-03T19:40:25.598Z,91.60
2019-05-03T19:42:55.199Z,91.60
2019-05-03T19:45:24.827Z,91.60
2019-05-03T19:47:55.215Z,91.70
2019-05-03T19:50:26.982Z,91.90
2019-05-03T19:53:12.184Z,91.80
2019-05-03T19:55:40.584Z,91.90
2019-05-03T19:58:09.132Z,91.80
2019-05-03T20:00:57.460Z,92.30
2019-05-03T20:03:36.854Z,92.10
2019-05-03T20:06:14.475Z,92.10
2019-05-03T20:08:47.783Z,91.80
2019-05-03T20:11:17.354Z,92.20
2019-05-03T20:13:46.803Z,92.20
2019-05-03T20:16:15.698Z,91.90
2019-05-03T20:18:45.534Z,92.30
2019-05-03T20:21:14.919Z,92.50
2019-05-03T20:23:46.556Z,93.20
2019-05-03T20:26:15.127Z,92.60
2019-05-03T20:28:44.834Z,92.60
2019-05-03T20:31:14.050Z,92.40
2019-05-03T20:33:43.049Z,92.20
2019-05-03T20:36:11.514Z,92.50
2019-05-03T20:38:39.970Z,92.70
2019-05-03T20:41:08.844Z,92.50
2019-05-03T20:43:38.899Z,92.90
2019-05-03T20:46:25.491Z,92.90
2019-05-03T20:48:56.171Z,93.40
2019-05-03T20:51:25.151Z,93.00
2019-05-03T20:53:55.356Z,92.90
2019-05-03T20:56:24.639Z,93.40
2019-05-03T20:58:54.983Z,93.40
2019-05-03T21:01:25.580Z,93.90
2019-05-03T21:03:54.662Z,94.00
2019-05-03T21:06:35.132Z,94.20
2019-05-03T21:08:56.390Z,94.70
2019-05-03T21:11:25.186Z,94.60
2019-05-03T21:13:54.185Z,95.00
2019-05-03T21:16:30.010Z,95.10
2019-05-03T21:19:00.460Z,95.00
2019-05-03T21:21:30.529Z,95.50
2019-05-03T21:24:00.641Z,96.20
2019-05-03T21:26:29.066Z,96.90
2019-05-03T21:28:57.459Z,97.70
2019-05-03T21:31:25.955Z,96.50
2019-05-03T21:33:55.246Z,96.90
2019-05-03T21:36:25.519Z,96.90
2019-05-03T21:38:54.832Z,97.90
2019-05-03T21:41:24.660Z,97.60
2019-05-03T21:43:54.489Z,97.20
2019-05-03T21:46:25.548Z,97.40
2019-05-03T21:49:04.755Z,98.30
2019-05-03T21:51:34.612Z,98.40
2019-05-03T21:54:06.659Z,99.00
2019-05-03T21:56:35.445Z,99.70
2019-05-03T21:59:05.416Z,99.90
2019-05-03T22:01:37.532Z,99.90
2019-05-03T22:04:05.718Z,99.90
2019-05-03T22:06:35.092Z,99.90
2019-05-03T22:09:05.526Z,99.90
2019-05-03T22:11:34.129Z,99.90
2019-05-03T22:14:04.845Z,99.90
2019-05-03T22:16:50.370Z,99.90
2019-05-03T22:19:25.104Z,99.90
2019-05-03T22:22:11.750Z,99.90
2019-05-03T22:24:42.200Z,99.90
2019-05-03T22:27:12.479Z,99.90
2019-05-03T22:29:41.133Z,99.90
2019-05-03T22:32:09.553Z,99.90
2019-05-03T22:34:38.245Z,99.90
2019-05-03T22:37:06.799Z,99.90
2019-05-03T22:39:35.272Z,99.90
2019-05-03T22:42:04.502Z,99.90
2019-05-03T22:44:35.611Z,99.90
2019-05-03T22:47:05.554Z,99.90
2019-05-03T22:49:34.598Z,99.90
2019-05-03T22:52:04.962Z,99.90
2019-05-03T22:54:34.623Z,99.90
2019-05-03T22:57:04.815Z,99.90
2019-05-03T22:59:34.479Z,99.90
2019-05-03T23:02:03.213Z,99.90
2019-05-03T23:04:31.702Z,99.90
2019-05-03T23:07:00.454Z,99.90
2019-05-03T23:09:28.867Z,99.90
2019-05-03T23:11:57.286Z,99.90
2019-05-03T23:14:26.377Z,99.90
2019-05-03T23:16:54.793Z,99.90
2019-05-03T23:19:23.290Z,99.90
2019-05-03T23:21:56.864Z,99.90
2019-05-03T23:24:25.342Z,99.90
2019-05-03T23:26:53.823Z,99.90
2019-05-03T23:29:25.791Z,99.90
2019-05-03T23:31:54.469Z,99.90
2019-05-03T23:34:24.704Z,99.90
2019-05-03T23:36:55.109Z,99.90
2019-05-03T23:39:24.933Z,99.90
2019-05-03T23:41:55.572Z,99.90
2019-05-03T23:44:24.482Z,99.90
2019-05-03T23:47:00.680Z,99.90
2019-05-03T23:49:32.168Z,99.90
2019-05-03T23:52:02.229Z,99.90
2019-05-03T23:54:30.706Z,99.90
2019-05-03T23:56:59.677Z,99.90
2019-05-03T23:59:28.106Z,99.90
